sensor_id;sensor_type;location;lat;lon;timestamp;P1;durP1;ratioP1;P2;durP2;ratioP2
47669;SDS011;33408;52.062;11.722;2022-07-05T00:01:22;4.22;;;1.70;;
47669;SDS011;33408;52.062;11.722;2022-07-05T00:03:49;10.35;;;1.65;;
47669;SDS011;33408;52.062;11.722;2022-07-05T00:06:15;6.10;;;1.90;;
47669;SDS011;33408;52.062;11.722;2022-07-05T00:08:42;3.08;;;1.40;;
47669;SDS011;33408;52.062;11.722;2022-07-05T00:11:09;6.68;;;2.05;;
47669;SDS011;33408;52.062;11.722;2022-07-05T00:13:35;4.97;;;1.65;;
47669;SDS011;33408;52.062;11.722;2022-07-05T00:16:02;4.15;;;1.73;;
47669;SDS011;33408;52.062;11.722;2022-07-05T00:18:30;5.65;;;1.70;;
47669;SDS011;33408;52.062;11.722;2022-07-05T00:20:57;3.95;;;1.90;;
47669;SDS011;33408;52.062;11.722;2022-07-05T00:23:23;4.88;;;1.40;;
47669;SDS011;33408;52.062;11.722;2022-07-05T00:25:50;3.35;;;1.55;;
47669;SDS011;33408;52.062;11.722;2022-07-05T00:28:17;3.17;;;1.40;;
47669;SDS011;33408;52.062;11.722;2022-07-05T00:30:44;3.45;;;1.42;;
47669;SDS011;33408;52.062;11.722;2022-07-05T00:33:11;8.10;;;2.10;;
47669;SDS011;33408;52.062;11.722;2022-07-05T00:35:39;6.40;;;1.73;;
47669;SDS011;33408;52.062;11.722;2022-07-05T00:38:05;3.17;;;1.50;;
47669;SDS011;33408;52.062;11.722;2022-07-05T00:40:32;4.63;;;1.92;;
47669;SDS011;33408;52.062;11.722;2022-07-05T00:42:59;5.05;;;1.58;;
47669;SDS011;33408;52.062;11.722;2022-07-05T00:45:25;5.68;;;1.58;;
47669;SDS011;33408;52.062;11.722;2022-07-05T00:47:52;5.60;;;1.98;;
47669;SDS011;33408;52.062;11.722;2022-07-05T00:50:19;4.70;;;2.08;;
47669;SDS011;33408;52.062;11.722;2022-07-05T00:52:47;4.40;;;1.70;;
47669;SDS011;33408;52.062;11.722;2022-07-05T00:55:15;6.25;;;1.80;;
47669;SDS011;33408;52.062;11.722;2022-07-05T00:57:42;4.25;;;1.52;;
47669;SDS011;33408;52.062;11.722;2022-07-05T01:00:09;5.85;;;2.00;;
47669;SDS011;33408;52.062;11.722;2022-07-05T01:02:36;5.45;;;1.85;;
47669;SDS011;33408;52.062;11.722;2022-07-05T01:05:03;4.60;;;1.70;;
47669;SDS011;33408;52.062;11.722;2022-07-05T01:07:30;3.38;;;1.70;;
47669;SDS011;33408;52.062;11.722;2022-07-05T01:09:58;5.28;;;1.90;;
47669;SDS011;33408;52.062;11.722;2022-07-05T01:12:25;5.75;;;1.80;;
47669;SDS011;33408;52.062;11.722;2022-07-05T01:14:52;7.72;;;2.17;;
47669;SDS011;33408;52.062;11.722;2022-07-05T01:17:20;4.82;;;1.83;;
47669;SDS011;33408;52.062;11.722;2022-07-05T01:19:46;4.57;;;2.22;;
47669;SDS011;33408;52.062;11.722;2022-07-05T01:22:16;6.65;;;1.98;;
47669;SDS011;33408;52.062;11.722;2022-07-05T01:24:45;5.13;;;2.00;;
47669;SDS011;33408;52.062;11.722;2022-07-05T01:27:12;5.00;;;1.88;;
47669;SDS011;33408;52.062;11.722;2022-07-05T01:29:39;5.28;;;2.15;;
47669;SDS011;33408;52.062;11.722;2022-07-05T01:32:07;15.68;;;2.20;;
47669;SDS011;33408;52.062;11.722;2022-07-05T01:34:36;3.85;;;1.70;;
47669;SDS011;33408;52.062;11.722;2022-07-05T01:37:03;3.97;;;1.88;;
47669;SDS011;33408;52.062;11.722;2022-07-05T01:39:31;4.40;;;1.83;;
47669;SDS011;33408;52.062;11.722;2022-07-05T01:41:59;6.47;;;2.13;;
47669;SDS011;33408;52.062;11.722;2022-07-05T01:44:26;4.40;;;2.10;;
47669;SDS011;33408;52.062;11.722;2022-07-05T01:46:54;5.05;;;2.38;;
47669;SDS011;33408;52.062;11.722;2022-07-05T01:49:24;4.93;;;2.15;;
47669;SDS011;33408;52.062;11.722;2022-07-05T01:51:54;7.47;;;2.42;;
47669;SDS011;33408;52.062;11.722;2022-07-05T01:54:23;4.05;;;1.80;;
47669;SDS011;33408;52.062;11.722;2022-07-05T01:56:50;5.75;;;2.00;;
47669;SDS011;33408;52.062;11.722;2022-07-05T01:59:18;7.47;;;2.20;;
47669;SDS011;33408;52.062;11.722;2022-07-05T02:01:45;5.03;;;2.40;;
47669;SDS011;33408;52.062;11.722;2022-07-05T02:04:11;6.35;;;1.90;;
47669;SDS011;33408;52.062;11.722;2022-07-05T02:06:38;7.72;;;2.50;;
47669;SDS011;33408;52.062;11.722;2022-07-05T02:09:06;3.72;;;1.95;;
47669;SDS011;33408;52.062;11.722;2022-07-05T02:11:33;4.80;;;1.90;;
47669;SDS011;33408;52.062;11.722;2022-07-05T02:14:01;6.32;;;2.03;;
47669;SDS011;33408;52.062;11.722;2022-07-05T02:16:29;7.20;;;2.33;;
47669;SDS011;33408;52.062;11.722;2022-07-05T02:18:56;9.38;;;2.17;;
47669;SDS011;33408;52.062;11.722;2022-07-05T02:21:22;4.65;;;2.30;;
47669;SDS011;33408;52.062;11.722;2022-07-05T02:23:49;7.70;;;2.30;;
47669;SDS011;33408;52.062;11.722;2022-07-05T02:26:16;4.85;;;2.25;;
47669;SDS011;33408;52.062;11.722;2022-07-05T02:28:43;6.20;;;2.50;;
47669;SDS011;33408;52.062;11.722;2022-07-05T02:31:09;6.25;;;2.20;;
47669;SDS011;33408;52.062;11.722;2022-07-05T02:33:37;5.32;;;2.22;;
47669;SDS011;33408;52.062;11.722;2022-07-05T02:36:08;4.55;;;2.13;;
47669;SDS011;33408;52.062;11.722;2022-07-05T02:38:36;8.38;;;2.25;;
47669;SDS011;33408;52.062;11.722;2022-07-05T02:41:05;5.63;;;2.30;;
47669;SDS011;33408;52.062;11.722;2022-07-05T02:43:33;9.85;;;3.20;;
47669;SDS011;33408;52.062;11.722;2022-07-05T02:46:00;5.78;;;2.38;;
47669;SDS011;33408;52.062;11.722;2022-07-05T02:48:26;5.40;;;2.45;;
47669;SDS011;33408;52.062;11.722;2022-07-05T02:50:55;5.32;;;2.63;;
47669;SDS011;33408;52.062;11.722;2022-07-05T02:53:22;5.78;;;2.33;;
47669;SDS011;33408;52.062;11.722;2022-07-05T02:55:48;5.15;;;2.42;;
47669;SDS011;33408;52.062;11.722;2022-07-05T02:58:15;6.30;;;2.40;;
47669;SDS011;33408;52.062;11.722;2022-07-05T03:00:42;6.63;;;2.72;;
47669;SDS011;33408;52.062;11.722;2022-07-05T03:03:09;5.45;;;2.30;;
47669;SDS011;33408;52.062;11.722;2022-07-05T03:05:36;4.22;;;2.42;;
47669;SDS011;33408;52.062;11.722;2022-07-05T03:08:04;7.25;;;2.88;;
47669;SDS011;33408;52.062;11.722;2022-07-05T03:10:31;5.45;;;2.55;;
47669;SDS011;33408;52.062;11.722;2022-07-05T03:12:58;5.95;;;2.95;;
47669;SDS011;33408;52.062;11.722;2022-07-05T03:15:25;5.43;;;2.70;;
47669;SDS011;33408;52.062;11.722;2022-07-05T03:17:52;6.60;;;2.80;;
47669;SDS011;33408;52.062;11.722;2022-07-05T03:20:18;6.30;;;2.65;;
47669;SDS011;33408;52.062;11.722;2022-07-05T03:22:45;7.68;;;3.17;;
47669;SDS011;33408;52.062;11.722;2022-07-05T03:25:13;8.98;;;3.13;;
47669;SDS011;33408;52.062;11.722;2022-07-05T03:27:39;8.82;;;2.72;;
47669;SDS011;33408;52.062;11.722;2022-07-05T03:30:06;7.05;;;2.70;;
47669;SDS011;33408;52.062;11.722;2022-07-05T03:32:34;6.38;;;2.58;;
47669;SDS011;33408;52.062;11.722;2022-07-05T03:35:01;7.30;;;2.55;;
47669;SDS011;33408;52.062;11.722;2022-07-05T03:37:27;8.18;;;3.08;;
47669;SDS011;33408;52.062;11.722;2022-07-05T03:39:54;8.63;;;2.80;;
47669;SDS011;33408;52.062;11.722;2022-07-05T03:42:22;7.28;;;2.75;;
47669;SDS011;33408;52.062;11.722;2022-07-05T03:44:48;8.23;;;3.10;;
47669;SDS011;33408;52.062;11.722;2022-07-05T03:47:15;7.55;;;2.80;;
47669;SDS011;33408;52.062;11.722;2022-07-05T03:49:42;5.50;;;2.30;;
47669;SDS011;33408;52.062;11.722;2022-07-05T03:52:08;6.63;;;2.63;;
47669;SDS011;33408;52.062;11.722;2022-07-05T03:54:35;7.22;;;2.38;;
47669;SDS011;33408;52.062;11.722;2022-07-05T03:57:02;5.35;;;2.40;;
47669;SDS011;33408;52.062;11.722;2022-07-05T03:59:30;6.80;;;2.30;;
47669;SDS011;33408;52.062;11.722;2022-07-05T04:01:56;4.18;;;2.00;;
47669;SDS011;33408;52.062;11.722;2022-07-05T04:04:23;5.93;;;2.35;;
47669;SDS011;33408;52.062;11.722;2022-07-05T04:06:50;6.20;;;2.10;;
47669;SDS011;33408;52.062;11.722;2022-07-05T04:09:16;9.27;;;2.00;;
47669;SDS011;33408;52.062;11.722;2022-07-05T04:11:43;5.13;;;1.60;;
47669;SDS011;33408;52.062;11.722;2022-07-05T04:14:09;9.55;;;2.80;;
47669;SDS011;33408;52.062;11.722;2022-07-05T04:16:37;6.75;;;2.10;;
47669;SDS011;33408;52.062;11.722;2022-07-05T04:19:04;4.97;;;2.22;;
47669;SDS011;33408;52.062;11.722;2022-07-05T04:21:31;3.53;;;1.75;;
47669;SDS011;33408;52.062;11.722;2022-07-05T04:23:57;7.72;;;2.45;;
47669;SDS011;33408;52.062;11.722;2022-07-05T04:26:24;6.93;;;2.13;;
47669;SDS011;33408;52.062;11.722;2022-07-05T04:28:50;6.95;;;2.17;;
47669;SDS011;33408;52.062;11.722;2022-07-05T04:31:17;4.43;;;1.75;;
47669;SDS011;33408;52.062;11.722;2022-07-05T04:33:45;3.83;;;1.80;;
47669;SDS011;33408;52.062;11.722;2022-07-05T04:36:12;5.63;;;2.17;;
47669;SDS011;33408;52.062;11.722;2022-07-05T04:38:38;18.50;;;2.65;;
47669;SDS011;33408;52.062;11.722;2022-07-05T04:41:05;8.30;;;2.00;;
47669;SDS011;33408;52.062;11.722;2022-07-05T04:43:31;6.88;;;1.67;;
47669;SDS011;33408;52.062;11.722;2022-07-05T04:45:59;4.70;;;1.60;;
47669;SDS011;33408;52.062;11.722;2022-07-05T04:48:26;5.43;;;1.80;;
47669;SDS011;33408;52.062;11.722;2022-07-05T04:50:54;8.63;;;2.08;;
47669;SDS011;33408;52.062;11.722;2022-07-05T04:53:20;5.57;;;1.50;;
47669;SDS011;33408;52.062;11.722;2022-07-05T04:55:47;2.75;;;1.25;;
47669;SDS011;33408;52.062;11.722;2022-07-05T04:58:13;4.85;;;1.63;;
47669;SDS011;33408;52.062;11.722;2022-07-05T05:00:40;4.53;;;2.08;;
47669;SDS011;33408;52.062;11.722;2022-07-05T05:03:07;6.50;;;2.17;;
47669;SDS011;33408;52.062;11.722;2022-07-05T05:05:33;5.53;;;2.20;;
47669;SDS011;33408;52.062;11.722;2022-07-05T05:08:01;5.85;;;2.05;;
47669;SDS011;33408;52.062;11.722;2022-07-05T05:10:28;8.75;;;2.35;;
47669;SDS011;33408;52.062;11.722;2022-07-05T05:12:54;4.47;;;1.50;;
47669;SDS011;33408;52.062;11.722;2022-07-05T05:15:21;10.27;;;2.13;;
47669;SDS011;33408;52.062;11.722;2022-07-05T05:17:47;4.72;;;1.50;;
47669;SDS011;33408;52.062;11.722;2022-07-05T05:20:14;8.10;;;2.35;;
47669;SDS011;33408;52.062;11.722;2022-07-05T05:22:42;5.05;;;1.60;;
47669;SDS011;33408;52.062;11.722;2022-07-05T05:25:11;6.28;;;2.10;;
47669;SDS011;33408;52.062;11.722;2022-07-05T05:27:41;6.75;;;2.10;;
47669;SDS011;33408;52.062;11.722;2022-07-05T05:30:09;5.22;;;1.58;;
47669;SDS011;33408;52.062;11.722;2022-07-05T05:32:37;5.25;;;1.70;;
47669;SDS011;33408;52.062;11.722;2022-07-05T05:35:04;5.47;;;2.00;;
47669;SDS011;33408;52.062;11.722;2022-07-05T05:37:31;6.95;;;2.00;;
47669;SDS011;33408;52.062;11.722;2022-07-05T05:40:12;4.63;;;1.38;;
47669;SDS011;33408;52.062;11.722;2022-07-05T05:42:39;6.05;;;1.58;;
47669;SDS011;33408;52.062;11.722;2022-07-05T05:45:06;4.93;;;1.38;;
47669;SDS011;33408;52.062;11.722;2022-07-05T05:47:33;2.63;;;1.00;;
47669;SDS011;33408;52.062;11.722;2022-07-05T05:50:00;3.03;;;1.33;;
47669;SDS011;33408;52.062;11.722;2022-07-05T05:52:26;4.72;;;1.23;;
47669;SDS011;33408;52.062;11.722;2022-07-05T05:54:53;2.75;;;1.13;;
47669;SDS011;33408;52.062;11.722;2022-07-05T05:57:21;3.53;;;1.30;;
47669;SDS011;33408;52.062;11.722;2022-07-05T05:59:48;5.88;;;1.38;;
47669;SDS011;33408;52.062;11.722;2022-07-05T06:02:14;5.38;;;1.35;;
47669;SDS011;33408;52.062;11.722;2022-07-05T06:04:41;9.45;;;2.10;;
47669;SDS011;33408;52.062;11.722;2022-07-05T06:07:07;5.53;;;1.70;;
47669;SDS011;33408;52.062;11.722;2022-07-05T06:09:34;3.97;;;1.27;;
47669;SDS011;33408;52.062;11.722;2022-07-05T06:12:01;4.05;;;1.73;;
47669;SDS011;33408;52.062;11.722;2022-07-05T06:14:28;3.17;;;1.38;;
47669;SDS011;33408;52.062;11.722;2022-07-05T06:16:55;6.05;;;1.80;;
47669;SDS011;33408;52.062;11.722;2022-07-05T06:19:22;5.45;;;1.48;;
47669;SDS011;33408;52.062;11.722;2022-07-05T06:21:48;7.78;;;1.77;;
47669;SDS011;33408;52.062;11.722;2022-07-05T06:24:18;7.22;;;1.60;;
47669;SDS011;33408;52.062;11.722;2022-07-05T06:26:44;5.68;;;1.63;;
47669;SDS011;33408;52.062;11.722;2022-07-05T06:29:11;7.45;;;2.00;;
47669;SDS011;33408;52.062;11.722;2022-07-05T06:31:39;5.78;;;1.83;;
47669;SDS011;33408;52.062;11.722;2022-07-05T06:34:06;6.97;;;1.20;;
47669;SDS011;33408;52.062;11.722;2022-07-05T06:36:32;4.50;;;1.50;;
47669;SDS011;33408;52.062;11.722;2022-07-05T06:38:59;7.97;;;1.92;;
47669;SDS011;33408;52.062;11.722;2022-07-05T06:41:26;8.40;;;1.55;;
47669;SDS011;33408;52.062;11.722;2022-07-05T06:43:52;2.70;;;1.23;;
47669;SDS011;33408;52.062;11.722;2022-07-05T06:46:19;8.75;;;1.85;;
47669;SDS011;33408;52.062;11.722;2022-07-05T06:48:47;5.30;;;1.65;;
47669;SDS011;33408;52.062;11.722;2022-07-05T06:51:13;5.10;;;1.70;;
47669;SDS011;33408;52.062;11.722;2022-07-05T06:53:40;6.32;;;1.05;;
47669;SDS011;33408;52.062;11.722;2022-07-05T06:56:07;4.45;;;1.45;;
47669;SDS011;33408;52.062;11.722;2022-07-05T06:58:33;4.70;;;1.75;;
47669;SDS011;33408;52.062;11.722;2022-07-05T07:01:01;4.05;;;1.10;;
47669;SDS011;33408;52.062;11.722;2022-07-05T07:03:28;2.50;;;1.00;;
47669;SDS011;33408;52.062;11.722;2022-07-05T07:06:00;4.38;;;1.23;;
47669;SDS011;33408;52.062;11.722;2022-07-05T07:08:26;5.88;;;1.55;;
47669;SDS011;33408;52.062;11.722;2022-07-05T07:11:10;2.67;;;1.25;;
47669;SDS011;33408;52.062;11.722;2022-07-05T07:13:38;3.42;;;1.48;;
47669;SDS011;33408;52.062;11.722;2022-07-05T07:16:04;6.90;;;1.80;;
47669;SDS011;33408;52.062;11.722;2022-07-05T07:18:31;3.70;;;1.20;;
47669;SDS011;33408;52.062;11.722;2022-07-05T07:21:01;6.53;;;1.48;;
47669;SDS011;33408;52.062;11.722;2022-07-05T07:23:27;4.15;;;1.17;;
47669;SDS011;33408;52.062;11.722;2022-07-05T07:25:54;5.47;;;1.48;;
47669;SDS011;33408;52.062;11.722;2022-07-05T07:28:21;5.47;;;1.42;;
47669;SDS011;33408;52.062;11.722;2022-07-05T07:30:49;5.07;;;1.20;;
47669;SDS011;33408;52.062;11.722;2022-07-05T07:33:18;2.33;;;1.05;;
47669;SDS011;33408;52.062;11.722;2022-07-05T07:35:45;4.00;;;0.93;;
47669;SDS011;33408;52.062;11.722;2022-07-05T07:38:16;8.68;;;1.20;;
47669;SDS011;33408;52.062;11.722;2022-07-05T07:40:42;4.88;;;1.10;;
47669;SDS011;33408;52.062;11.722;2022-07-05T07:43:09;2.70;;;1.00;;
47669;SDS011;33408;52.062;11.722;2022-07-05T07:45:36;9.73;;;1.50;;
47669;SDS011;33408;52.062;11.722;2022-07-05T07:48:03;4.90;;;1.55;;
47669;SDS011;33408;52.062;11.722;2022-07-05T07:50:30;4.22;;;1.40;;
47669;SDS011;33408;52.062;11.722;2022-07-05T07:52:56;4.53;;;1.77;;
47669;SDS011;33408;52.062;11.722;2022-07-05T07:55:24;5.90;;;1.55;;
47669;SDS011;33408;52.062;11.722;2022-07-05T07:57:51;8.48;;;1.17;;
47669;SDS011;33408;52.062;11.722;2022-07-05T08:00:18;6.10;;;1.30;;
47669;SDS011;33408;52.062;11.722;2022-07-05T08:02:44;4.82;;;1.40;;
47669;SDS011;33408;52.062;11.722;2022-07-05T08:05:13;6.70;;;1.60;;
47669;SDS011;33408;52.062;11.722;2022-07-05T08:07:39;5.55;;;1.60;;
47669;SDS011;33408;52.062;11.722;2022-07-05T08:10:07;5.63;;;1.20;;
47669;SDS011;33408;52.062;11.722;2022-07-05T08:12:35;4.38;;;1.45;;
47669;SDS011;33408;52.062;11.722;2022-07-05T08:15:05;3.97;;;1.33;;
47669;SDS011;33408;52.062;11.722;2022-07-05T08:17:35;3.13;;;1.05;;
47669;SDS011;33408;52.062;11.722;2022-07-05T08:20:01;6.00;;;1.58;;
47669;SDS011;33408;52.062;11.722;2022-07-05T08:22:46;2.85;;;1.10;;
47669;SDS011;33408;52.062;11.722;2022-07-05T08:25:13;3.58;;;1.52;;
47669;SDS011;33408;52.062;11.722;2022-07-05T08:27:43;7.45;;;1.63;;
47669;SDS011;33408;52.062;11.722;2022-07-05T08:30:10;4.15;;;1.27;;
47669;SDS011;33408;52.062;11.722;2022-07-05T08:32:37;4.97;;;1.40;;
47669;SDS011;33408;52.062;11.722;2022-07-05T08:35:04;7.47;;;1.63;;
47669;SDS011;33408;52.062;11.722;2022-07-05T08:37:31;3.67;;;1.10;;
47669;SDS011;33408;52.062;11.722;2022-07-05T08:39:58;3.67;;;1.25;;
47669;SDS011;33408;52.062;11.722;2022-07-05T08:42:24;3.83;;;1.30;;
47669;SDS011;33408;52.062;11.722;2022-07-05T08:44:56;5.07;;;1.45;;
47669;SDS011;33408;52.062;11.722;2022-07-05T08:47:24;6.40;;;1.50;;
47669;SDS011;33408;52.062;11.722;2022-07-05T08:49:56;2.78;;;1.08;;
47669;SDS011;33408;52.062;11.722;2022-07-05T08:52:25;7.32;;;1.95;;
47669;SDS011;33408;52.062;11.722;2022-07-05T08:54:56;4.07;;;1.10;;
47669;SDS011;33408;52.062;11.722;2022-07-05T08:57:23;7.85;;;1.27;;
47669;SDS011;33408;52.062;11.722;2022-07-05T08:59:50;4.47;;;1.45;;
47669;SDS011;33408;52.062;11.722;2022-07-05T09:02:18;5.80;;;1.52;;
47669;SDS011;33408;52.062;11.722;2022-07-05T09:04:46;4.63;;;1.55;;
47669;SDS011;33408;52.062;11.722;2022-07-05T09:07:16;11.20;;;1.88;;
47669;SDS011;33408;52.062;11.722;2022-07-05T09:09:43;5.13;;;1.23;;
47669;SDS011;33408;52.062;11.722;2022-07-05T09:12:15;4.45;;;1.58;;
47669;SDS011;33408;52.062;11.722;2022-07-05T09:14:42;2.20;;;1.25;;
47669;SDS011;33408;52.062;11.722;2022-07-05T09:17:08;6.50;;;1.67;;
47669;SDS011;33408;52.062;11.722;2022-07-05T09:19:41;6.57;;;1.70;;
47669;SDS011;33408;52.062;11.722;2022-07-05T09:22:08;3.47;;;1.40;;
47669;SDS011;33408;52.062;11.722;2022-07-05T09:24:42;8.57;;;1.50;;
47669;SDS011;33408;52.062;11.722;2022-07-05T09:27:09;4.63;;;1.50;;
47669;SDS011;33408;52.062;11.722;2022-07-05T09:29:36;6.15;;;2.05;;
47669;SDS011;33408;52.062;11.722;2022-07-05T09:32:03;5.70;;;1.65;;
47669;SDS011;33408;52.062;11.722;2022-07-05T09:34:30;5.93;;;1.90;;
47669;SDS011;33408;52.062;11.722;2022-07-05T09:37:01;3.90;;;1.40;;
47669;SDS011;33408;52.062;11.722;2022-07-05T09:39:35;9.98;;;1.90;;
47669;SDS011;33408;52.062;11.722;2022-07-05T09:42:14;4.80;;;1.48;;
47669;SDS011;33408;52.062;11.722;2022-07-05T09:44:45;7.28;;;1.67;;
47669;SDS011;33408;52.062;11.722;2022-07-05T09:47:13;7.63;;;1.83;;
47669;SDS011;33408;52.062;11.722;2022-07-05T09:49:41;4.78;;;1.48;;
47669;SDS011;33408;52.062;11.722;2022-07-05T09:52:10;6.00;;;1.80;;
47669;SDS011;33408;52.062;11.722;2022-07-05T09:54:37;5.18;;;1.80;;
47669;SDS011;33408;52.062;11.722;2022-07-05T09:57:05;6.50;;;2.08;;
47669;SDS011;33408;52.062;11.722;2022-07-05T09:59:32;16.20;;;2.05;;
47669;SDS011;33408;52.062;11.722;2022-07-05T10:01:58;3.45;;;1.50;;
47669;SDS011;33408;52.062;11.722;2022-07-05T10:04:25;5.80;;;2.03;;
47669;SDS011;33408;52.062;11.722;2022-07-05T10:06:51;7.97;;;1.77;;
47669;SDS011;33408;52.062;11.722;2022-07-05T10:09:19;8.02;;;2.05;;
47669;SDS011;33408;52.062;11.722;2022-07-05T10:11:47;5.35;;;2.17;;
47669;SDS011;33408;52.062;11.722;2022-07-05T10:14:17;5.90;;;1.80;;
47669;SDS011;33408;52.062;11.722;2022-07-05T10:16:45;4.35;;;1.60;;
47669;SDS011;33408;52.062;11.722;2022-07-05T10:19:18;8.85;;;1.90;;
47669;SDS011;33408;52.062;11.722;2022-07-05T10:21:46;5.30;;;1.58;;
47669;SDS011;33408;52.062;11.722;2022-07-05T10:24:13;4.20;;;1.33;;
47669;SDS011;33408;52.062;11.722;2022-07-05T10:26:45;6.15;;;1.35;;
47669;SDS011;33408;52.062;11.722;2022-07-05T10:29:13;5.00;;;1.60;;
47669;SDS011;33408;52.062;11.722;2022-07-05T10:31:42;5.70;;;1.77;;
47669;SDS011;33408;52.062;11.722;2022-07-05T10:34:09;5.70;;;1.63;;
47669;SDS011;33408;52.062;11.722;2022-07-05T10:36:36;4.28;;;1.50;;
47669;SDS011;33408;52.062;11.722;2022-07-05T10:39:05;5.57;;;1.88;;
47669;SDS011;33408;52.062;11.722;2022-07-05T10:41:33;5.15;;;1.40;;
47669;SDS011;33408;52.062;11.722;2022-07-05T10:44:02;9.35;;;2.03;;
47669;SDS011;33408;52.062;11.722;2022-07-05T10:46:32;5.43;;;1.85;;
47669;SDS011;33408;52.062;11.722;2022-07-05T10:49:09;3.65;;;1.48;;
47669;SDS011;33408;52.062;11.722;2022-07-05T10:51:37;6.07;;;1.85;;
47669;SDS011;33408;52.062;11.722;2022-07-05T10:54:04;4.53;;;1.60;;
47669;SDS011;33408;52.062;11.722;2022-07-05T10:56:30;6.78;;;2.03;;
47669;SDS011;33408;52.062;11.722;2022-07-05T10:59:05;7.15;;;1.80;;
47669;SDS011;33408;52.062;11.722;2022-07-05T11:01:35;6.70;;;1.92;;
47669;SDS011;33408;52.062;11.722;2022-07-05T11:06:59;5.00;;;1.60;;
47669;SDS011;33408;52.062;11.722;2022-07-05T11:09:26;4.47;;;1.60;;
47669;SDS011;33408;52.062;11.722;2022-07-05T11:12:03;5.10;;;1.70;;
47669;SDS011;33408;52.062;11.722;2022-07-05T11:14:39;4.25;;;1.50;;
47669;SDS011;33408;52.062;11.722;2022-07-05T11:17:16;5.43;;;1.70;;
47669;SDS011;33408;52.062;11.722;2022-07-05T11:20:00;8.45;;;1.85;;
47669;SDS011;33408;52.062;11.722;2022-07-05T11:22:29;5.57;;;1.75;;
47669;SDS011;33408;52.062;11.722;2022-07-05T11:24:57;4.00;;;1.85;;
47669;SDS011;33408;52.062;11.722;2022-07-05T11:27:24;3.13;;;1.42;;
47669;SDS011;33408;52.062;11.722;2022-07-05T11:29:52;5.72;;;1.80;;
47669;SDS011;33408;52.062;11.722;2022-07-05T11:32:20;6.15;;;1.80;;
47669;SDS011;33408;52.062;11.722;2022-07-05T11:34:48;3.88;;;1.70;;
47669;SDS011;33408;52.062;11.722;2022-07-05T11:37:20;3.55;;;1.40;;
47669;SDS011;33408;52.062;11.722;2022-07-05T11:42:48;6.13;;;2.47;;
47669;SDS011;33408;52.062;11.722;2022-07-05T11:45:17;5.95;;;1.70;;
47669;SDS011;33408;52.062;11.722;2022-07-05T11:47:44;6.13;;;2.08;;
47669;SDS011;33408;52.062;11.722;2022-07-05T11:50:11;6.88;;;1.95;;
47669;SDS011;33408;52.062;11.722;2022-07-05T11:52:38;4.38;;;1.52;;
47669;SDS011;33408;52.062;11.722;2022-07-05T11:55:07;8.77;;;2.00;;
47669;SDS011;33408;52.062;11.722;2022-07-05T11:57:34;4.97;;;1.98;;
47669;SDS011;33408;52.062;11.722;2022-07-05T12:00:02;5.90;;;1.73;;
47669;SDS011;33408;52.062;11.722;2022-07-05T12:02:30;5.95;;;1.80;;
47669;SDS011;33408;52.062;11.722;2022-07-05T12:04:57;7.82;;;2.42;;
47669;SDS011;33408;52.062;11.722;2022-07-05T12:07:24;13.45;;;2.92;;
47669;SDS011;33408;52.062;11.722;2022-07-05T12:09:52;7.32;;;2.42;;
47669;SDS011;33408;52.062;11.722;2022-07-05T12:12:35;9.07;;;1.92;;
47669;SDS011;33408;52.062;11.722;2022-07-05T12:15:13;3.78;;;1.67;;
47669;SDS011;33408;52.062;11.722;2022-07-05T12:17:42;5.90;;;1.90;;
47669;SDS011;33408;52.062;11.722;2022-07-05T12:20:11;6.90;;;2.03;;
47669;SDS011;33408;52.062;11.722;2022-07-05T12:22:39;4.57;;;1.90;;
47669;SDS011;33408;52.062;11.722;2022-07-05T12:25:10;6.22;;;2.03;;
47669;SDS011;33408;52.062;11.722;2022-07-05T12:27:39;6.55;;;1.90;;
47669;SDS011;33408;52.062;11.722;2022-07-05T12:30:08;6.20;;;1.70;;
47669;SDS011;33408;52.062;11.722;2022-07-05T12:35:27;4.82;;;1.80;;
47669;SDS011;33408;52.062;11.722;2022-07-05T12:37:55;4.30;;;1.70;;
47669;SDS011;33408;52.062;11.722;2022-07-05T12:40:22;4.40;;;1.67;;
47669;SDS011;33408;52.062;11.722;2022-07-05T12:42:59;6.18;;;2.08;;
47669;SDS011;33408;52.062;11.722;2022-07-05T12:45:27;7.13;;;2.03;;
47669;SDS011;33408;52.062;11.722;2022-07-05T12:47:54;7.75;;;2.00;;
47669;SDS011;33408;52.062;11.722;2022-07-05T12:50:24;11.20;;;2.10;;
47669;SDS011;33408;52.062;11.722;2022-07-05T12:52:54;6.03;;;1.85;;
47669;SDS011;33408;52.062;11.722;2022-07-05T12:55:24;4.28;;;1.60;;
47669;SDS011;33408;52.062;11.722;2022-07-05T12:58:08;4.80;;;1.58;;
47669;SDS011;33408;52.062;11.722;2022-07-05T13:00:36;9.98;;;1.75;;
47669;SDS011;33408;52.062;11.722;2022-07-05T13:03:04;5.85;;;1.45;;
47669;SDS011;33408;52.062;11.722;2022-07-05T13:05:32;6.00;;;1.58;;
47669;SDS011;33408;52.062;11.722;2022-07-05T13:07:59;6.90;;;1.65;;
47669;SDS011;33408;52.062;11.722;2022-07-05T13:10:26;4.10;;;1.65;;
47669;SDS011;33408;52.062;11.722;2022-07-05T13:12:56;5.32;;;1.60;;
47669;SDS011;33408;52.062;11.722;2022-07-05T13:15:23;11.95;;;1.60;;
47669;SDS011;33408;52.062;11.722;2022-07-05T13:17:50;8.27;;;1.88;;
47669;SDS011;33408;52.062;11.722;2022-07-05T13:20:18;4.47;;;1.35;;
47669;SDS011;33408;52.062;11.722;2022-07-05T13:22:48;3.35;;;1.23;;
47669;SDS011;33408;52.062;11.722;2022-07-05T13:25:16;6.28;;;1.40;;
47669;SDS011;33408;52.062;11.722;2022-07-05T13:27:43;5.35;;;1.70;;
47669;SDS011;33408;52.062;11.722;2022-07-05T13:30:10;5.10;;;1.40;;
47669;SDS011;33408;52.062;11.722;2022-07-05T13:32:38;2.47;;;1.20;;
47669;SDS011;33408;52.062;11.722;2022-07-05T13:35:05;4.95;;;1.45;;
47669;SDS011;33408;52.062;11.722;2022-07-05T13:37:34;2.15;;;1.13;;
47669;SDS011;33408;52.062;11.722;2022-07-05T13:40:00;4.20;;;1.27;;
47669;SDS011;33408;52.062;11.722;2022-07-05T13:42:27;7.07;;;1.42;;
47669;SDS011;33408;52.062;11.722;2022-07-05T13:44:53;3.85;;;1.67;;
47669;SDS011;33408;52.062;11.722;2022-07-05T13:47:20;4.47;;;1.52;;
47669;SDS011;33408;52.062;11.722;2022-07-05T13:49:47;4.60;;;1.40;;
47669;SDS011;33408;52.062;11.722;2022-07-05T13:52:13;3.22;;;1.30;;
47669;SDS011;33408;52.062;11.722;2022-07-05T13:54:41;1.92;;;1.13;;
47669;SDS011;33408;52.062;11.722;2022-07-05T13:57:10;3.33;;;1.42;;
47669;SDS011;33408;52.062;11.722;2022-07-05T13:59:37;4.78;;;1.35;;
47669;SDS011;33408;52.062;11.722;2022-07-05T14:02:04;3.70;;;1.45;;
47669;SDS011;33408;52.062;11.722;2022-07-05T14:04:30;3.50;;;1.25;;
47669;SDS011;33408;52.062;11.722;2022-07-05T14:06:58;3.83;;;1.30;;
47669;SDS011;33408;52.062;11.722;2022-07-05T14:09:25;5.63;;;1.63;;
47669;SDS011;33408;52.062;11.722;2022-07-05T14:11:53;3.42;;;1.30;;
47669;SDS011;33408;52.062;11.722;2022-07-05T14:14:19;5.85;;;1.27;;
47669;SDS011;33408;52.062;11.722;2022-07-05T14:16:46;3.00;;;1.25;;
47669;SDS011;33408;52.062;11.722;2022-07-05T14:19:12;4.72;;;1.42;;
47669;SDS011;33408;52.062;11.722;2022-07-05T14:21:39;2.67;;;1.15;;
47669;SDS011;33408;52.062;11.722;2022-07-05T14:24:10;4.57;;;1.73;;
47669;SDS011;33408;52.062;11.722;2022-07-05T14:26:36;4.43;;;1.33;;
47669;SDS011;33408;52.062;11.722;2022-07-05T14:29:06;3.00;;;1.15;;
47669;SDS011;33408;52.062;11.722;2022-07-05T14:31:33;3.65;;;1.40;;
47669;SDS011;33408;52.062;11.722;2022-07-05T14:33:59;5.18;;;1.38;;
47669;SDS011;33408;52.062;11.722;2022-07-05T14:36:26;4.03;;;1.33;;
47669;SDS011;33408;52.062;11.722;2022-07-05T14:38:52;2.97;;;1.20;;
47669;SDS011;33408;52.062;11.722;2022-07-05T14:41:19;4.32;;;1.10;;
47669;SDS011;33408;52.062;11.722;2022-07-05T14:43:46;3.40;;;1.25;;
47669;SDS011;33408;52.062;11.722;2022-07-05T14:46:14;4.13;;;1.30;;